Time;durP1;ratioP1;P1;durP2;ratioP2;P2;SDS_P1;SDS_P2;PMS_P1;PMS_P2;Temp;Humidity;BMP_temperature;BMP_pressure;BME280_temperature;BME280_humidity;BME280_pressure;Samples;Min_cycle;Max_cycle;Signal;HPM_P1;HPM_P2
2022/06/22 00:01:18;;;;;;;;;10.75;8.75;;;;;-149.35;100.00;64108.03;5000655;28;47021;-47
2022/06/22 00:03:47;;;;;;;;;12.80;12.80;;;;;-149.35;100.00;64108.03;5017429;28;45474;-51
2022/06/22 00:06:30;;;;;;;;;12.60;12.60;;;;;-149.35;100.00;64108.03;5017583;28;45877;-47
2022/06/22 00:08:55;;;;;;;;;12.00;11.00;;;;;-149.35;100.00;64108.03;5018873;28;45248;-48
2022/06/22 00:11:21;;;;;;;;;9.75;9.75;;;;;-149.35;100.00;64108.03;5018336;28;45511;-48
2022/06/22 00:13:51;;;;;;;;;11.75;10.50;;;;;-149.35;100.00;64108.03;5017248;28;45351;-47
2022/06/22 00:16:27;;;;;;;;;13.20;12.20;;;;;-149.35;100.00;64108.03;5017601;28;45328;-47
2022/06/22 00:18:53;;;;;;;;;14.60;10.60;;;;;-149.35;100.00;64108.03;5017158;28;45494;-50
2022/06/22 00:21:26;;;;;;;;;12.00;11.25;;;;;-149.35;100.00;64108.03;5017136;28;46408;-48
2022/06/22 00:23:58;;;;;;;;;15.00;13.40;;;;;-149.35;100.00;64108.03;5018230;28;45337;-51
2022/06/22 00:26:24;;;;;;;;;14.00;14.00;;;;;-149.35;100.00;64108.03;5018836;28;45760;-46
2022/06/22 00:29:04;;;;;;;;;17.00;15.00;;;;;-149.35;100.00;64108.03;5018772;28;45832;-47
2022/06/22 00:31:42;;;;;;;;;13.20;11.20;;;;;-149.35;100.00;64108.03;5017964;28;45357;-48
2022/06/22 00:34:10;;;;;;;;;11.60;9.00;;;;;-149.35;100.00;64108.03;5018220;28;45390;-48
2022/06/22 00:36:39;;;;;;;;;13.60;12.60;;;;;-149.35;100.00;64108.03;5018396;28;45385;-47
2022/06/22 00:39:29;;;;;;;;;10.60;9.60;;;;;-149.35;100.00;64108.03;5018302;28;45140;-49
2022/06/22 00:42:00;;;;;;;;;14.00;12.40;;;;;-149.35;100.00;64108.03;5017981;28;45427;-49
2022/06/22 00:44:29;;;;;;;;;14.20;12.00;;;;;-149.35;100.00;64108.03;5018275;28;45328;-47
2022/06/22 00:47:02;;;;;;;;;11.20;10.20;;;;;-149.35;100.00;64108.03;5017068;28;45465;-51
2022/06/22 00:49:28;;;;;;;;;15.40;12.40;;;;;-149.35;100.00;64108.03;5017153;28;45512;-47
2022/06/22 00:51:58;;;;;;;;;12.60;11.20;;;;;-149.35;100.00;64108.03;5016412;28;46627;-49
2022/06/22 00:54:25;;;;;;;;;14.60;13.20;;;;;-149.35;100.00;64108.03;5017852;28;45257;-51
2022/06/22 00:57:11;;;;;;;;;14.60;13.80;;;;;-149.35;100.00;64108.03;5016754;28;45344;-49
2022/06/22 00:59:38;;;;;;;;;12.00;12.00;;;;;-149.35;100.00;64108.03;5017094;28;45256;-48
2022/06/22 01:02:16;;;;;;;;;11.80;10.00;;;;;-149.35;100.00;64108.03;5015878;28;46285;-48
2022/06/22 01:04:46;;;;;;;;;10.80;10.80;;;;;-149.35;100.00;64108.03;5016495;28;45300;-50
2022/06/22 01:07:30;;;;;;;;;14.00;14.00;;;;;-149.35;100.00;64108.03;5000546;28;45351;-48
2022/06/22 01:10:06;;;;;;;;;16.20;13.60;;;;;-149.35;100.00;64108.03;5017985;28;45673;-49
2022/06/22 01:12:48;;;;;;;;;12.80;11.80;;;;;-149.35;100.00;64108.03;5015969;28;45703;-50
2022/06/22 01:15:23;;;;;;;;;15.20;13.00;;;;;-149.35;100.00;64108.03;5000427;28;45445;-46
2022/06/22 01:18:10;;;;;;;;;11.80;11.80;;;;;-149.35;100.00;64108.03;5017588;28;45414;-50
2022/06/22 01:20:53;;;;;;;;;11.00;11.00;;;;;-149.35;100.00;64108.03;5017805;28;45367;-47
2022/06/22 01:23:47;;;;;;;;;14.60;14.60;;;;;-149.35;100.00;64108.03;5017397;28;45511;-46
2022/06/22 01:26:21;;;;;;;;;16.00;13.20;;;;;-149.35;100.00;64108.03;5016529;28;45440;-48
2022/06/22 01:28:59;;;;;;;;;15.40;14.00;;;;;-149.35;100.00;64108.03;5017433;28;45456;-49
2022/06/22 01:31:25;;;;;;;;;15.00;15.00;;;;;-149.35;100.00;64108.03;5016437;28;45343;-46
2022/06/22 01:33:51;;;;;;;;;16.00;14.00;;;;;-149.35;100.00;64108.03;5015743;28;45374;-51
2022/06/22 01:36:28;;;;;;;;;12.00;11.50;;;;;-149.35;100.00;64108.03;4999650;28;45383;-49
2022/06/22 01:38:54;;;;;;;;;11.40;11.20;;;;;-149.35;100.00;64108.03;4990097;28;45832;-48
2022/06/22 01:41:41;;;;;;;;;16.00;14.75;;;;;-149.35;100.00;64108.03;5012932;28;45637;-48
2022/06/22 01:44:13;;;;;;;;;15.40;13.20;;;;;-149.35;100.00;64108.03;5013426;28;45970;-47
2022/06/22 01:46:57;;;;;;;;;15.40;12.60;;;;;-149.35;100.00;64108.03;5016975;28;45397;-47
2022/06/22 01:49:25;;;;;;;;;14.40;14.00;;;;;-149.35;100.00;64108.03;5017179;28;45308;-50
2022/06/22 01:51:52;;;;;;;;;13.40;13.00;;;;;-149.35;100.00;64108.03;5015479;28;45564;-48
2022/06/22 01:54:29;;;;;;;;;15.40;12.60;;;;;-149.35;100.00;64108.03;5015798;28;45851;-46
2022/06/22 01:57:06;;;;;;;;;18.20;13.20;;;;;-149.35;100.00;64108.03;5015585;28;45324;-49
2022/06/22 01:59:48;;;;;;;;;14.00;13.00;;;;;-149.35;100.00;64108.03;5017173;28;45272;-46
2022/06/22 02:02:19;;;;;;;;;20.00;17.80;;;;;-149.35;100.00;64108.03;5015635;28;45407;-47
2022/06/22 02:05:06;;;;;;;;;18.60;14.60;;;;;-149.35;100.00;64108.03;4999010;28;45841;-48
2022/06/22 02:07:45;;;;;;;;;17.00;13.80;;;;;-149.35;100.00;64108.03;4999378;28;45439;-49
2022/06/22 02:10:26;;;;;;;;;17.60;13.40;;;;;-149.35;100.00;64108.03;5001101;28;45275;-48
2022/06/22 02:13:28;;;;;;;;;16.00;13.60;;;;;-149.35;100.00;64108.03;5016485;28;45421;-46
2022/06/22 02:16:06;;;;;;;;;15.60;13.00;;;;;-149.35;100.00;64108.03;5015005;28;46638;-48
2022/06/22 02:18:51;;;;;;;;;14.00;14.00;;;;;-149.35;100.00;64108.03;5015123;28;45453;-46
2022/06/22 02:21:37;;;;;;;;;14.00;13.20;;;;;-149.35;100.00;64108.03;5015557;28;45358;-47
2022/06/22 02:24:09;;;;;;;;;14.40;13.20;;;;;-149.35;100.00;64108.03;5016554;28;45295;-47
2022/06/22 02:27:00;;;;;;;;;15.80;14.40;;;;;-149.35;100.00;64108.03;5015550;28;45739;-50
2022/06/22 02:29:29;;;;;;;;;15.40;13.00;;;;;-149.35;100.00;64108.03;5016876;28;45270;-48
2022/06/22 02:31:57;;;;;;;;;15.80;15.80;;;;;-149.35;100.00;64108.03;5015395;28;45417;-46
2022/06/22 02:34:23;;;;;;;;;10.00;10.00;;;;;-149.35;100.00;64108.03;5017071;28;45571;-48
2022/06/22 02:36:49;;;;;;;;;15.00;14.80;;;;;-149.35;100.00;64108.03;5015465;28;45532;-49
2022/06/22 02:39:14;;;;;;;;;21.60;16.80;;;;;-149.35;100.00;64108.03;5016503;28;45322;-50
2022/06/22 02:44:29;;;;;;;;;15.20;13.00;;;;;-149.35;100.00;64108.03;5016588;28;45321;-49
2022/06/22 02:46:55;;;;;;;;;16.00;14.60;;;;;-149.35;100.00;64108.03;4999549;28;46374;-47
2022/06/22 02:49:26;;;;;;;;;8.75;5.00;;;;;-149.35;100.00;64108.03;5015227;28;45393;-47
2022/06/22 02:51:51;;;;;;;;;14.80;13.20;;;;;-149.35;100.00;64108.03;5014872;28;45368;-49
2022/06/22 02:54:46;;;;;;;;;16.00;16.00;;;;;-149.35;100.00;64108.03;4998831;28;45442;-48
2022/06/22 02:57:29;;;;;;;;;14.60;13.80;;;;;-149.35;100.00;64108.03;5001934;28;46592;-45
2022/06/22 02:59:54;;;;;;;;;16.60;15.20;;;;;-149.35;100.00;64108.03;5015467;28;45417;-48
2022/06/22 03:02:21;;;;;;;;;16.75;15.00;;;;;-149.35;100.00;64108.03;5014867;28;45377;-49
2022/06/22 03:04:47;;;;;;;;;14.20;13.00;;;;;-149.35;100.00;64108.03;5015163;28;45717;-48
2022/06/22 03:07:13;;;;;;;;;16.00;15.00;;;;;-149.35;100.00;64108.03;5014691;28;46825;-51
2022/06/22 03:09:39;;;;;;;;;16.80;16.40;;;;;-149.35;100.00;64108.03;5016348;28;45315;-49
2022/06/22 03:12:05;;;;;;;;;14.20;13.00;;;;;-149.35;100.00;64108.03;5014841;28;45528;-49
2022/06/22 03:14:36;;;;;;;;;17.25;14.25;;;;;-149.35;100.00;64108.03;5014692;28;45459;-46
2022/06/22 03:17:05;;;;;;;;;19.20;15.80;;;;;-149.35;100.00;64108.03;5014701;28;46542;-47
2022/06/22 03:19:39;;;;;;;;;15.20;13.20;;;;;-149.35;100.00;64108.03;5014351;28;45422;-50
2022/06/22 03:22:04;;;;;;;;;18.00;16.60;;;;;-149.35;100.00;64108.03;5014587;28;45950;-47
2022/06/22 03:24:44;;;;;;;;;17.50;17.50;;;;;-149.35;100.00;64108.03;5014614;28;45430;-47
2022/06/22 03:27:13;;;;;;;;;13.20;13.20;;;;;-149.35;100.00;64108.03;5014662;28;45760;-48
2022/06/22 03:29:43;;;;;;;;;12.00;12.00;;;;;-149.35;100.00;64108.03;5014671;28;45432;-47
2022/06/22 03:32:13;;;;;;;;;14.00;12.80;;;;;-149.35;100.00;64108.03;5014551;28;45379;-48
2022/06/22 03:34:41;;;;;;;;;16.60;15.40;;;;;-149.35;100.00;64108.03;5014700;28;45636;-45
2022/06/22 03:37:12;;;;;;;;;17.00;13.20;;;;;-149.35;100.00;64108.03;5015872;28;45468;-49
2022/06/22 03:39:39;;;;;;;;;12.60;12.60;;;;;-149.35;100.00;64108.03;5014449;28;45389;-49
2022/06/22 03:42:09;;;;;;;;;17.80;14.60;;;;;-149.35;100.00;64108.03;5014679;28;45455;-48
2022/06/22 03:45:00;;;;;;;;;18.40;16.60;;;;;-149.35;100.00;64108.03;5014472;28;45368;-48
2022/06/22 03:47:55;;;;;;;;;12.60;12.60;;;;;-149.35;100.00;64108.03;4988965;28;46823;-52
2022/06/22 03:50:37;;;;;;;;;15.00;14.60;;;;;-149.35;100.00;64108.03;5015848;28;45413;-47
2022/06/22 03:53:24;;;;;;;;;16.20;14.20;;;;;-149.35;100.00;64108.03;5015363;28;45419;-49
2022/06/22 03:55:52;;;;;;;;;14.80;14.40;;;;;-149.35;100.00;64108.03;5015751;28;45377;-46
2022/06/22 03:58:20;;;;;;;;;14.60;13.80;;;;;-149.35;100.00;64108.03;5014372;28;45499;-46
2022/06/22 04:00:45;;;;;;;;;15.20;12.20;;;;;-149.35;100.00;64108.03;5015287;28;45212;-46
2022/06/22 04:03:12;;;;;;;;;14.50;12.75;;;;;-149.35;100.00;64108.03;5014278;28;45304;-48
2022/06/22 04:06:00;;;;;;;;;14.60;14.60;;;;;-149.35;100.00;64108.03;4997868;28;45418;-45
2022/06/22 04:08:33;;;;;;;;;16.40;15.20;;;;;-149.35;100.00;64108.03;5015321;28;46372;-46
2022/06/22 04:11:25;;;;;;;;;14.80;13.60;;;;;-149.35;100.00;64108.03;5014308;28;45393;-50
2022/06/22 04:13:52;;;;;;;;;15.20;14.20;;;;;-149.35;100.00;64108.03;4998874;28;45367;-45
2022/06/22 04:16:30;;;;;;;;;14.00;14.00;;;;;-149.35;100.00;64108.03;5014269;28;45628;-46
2022/06/22 04:18:57;;;;;;;;;16.60;16.60;;;;;-149.35;100.00;64108.03;5013815;28;46565;-44
2022/06/22 04:21:35;;;;;;;;;13.60;13.20;;;;;-149.35;100.00;64108.03;4997435;28;45455;-44
2022/06/22 04:24:13;;;;;;;;;20.00;17.20;;;;;-149.35;100.00;64108.03;5013968;28;45406;-47
2022/06/22 04:26:48;;;;;;;;;13.60;13.20;;;;;-149.35;100.00;64108.03;5015649;28;45559;-48
2022/06/22 04:29:44;;;;;;;;;13.00;13.00;;;;;-149.35;100.00;64108.03;5013807;28;45775;-46
2022/06/22 04:32:55;;;;;;;;;16.40;15.40;;;;;-149.35;100.00;64108.03;5012369;28;45258;-48
2022/06/22 04:35:32;;;;;;;;;17.00;14.40;;;;;-149.35;100.00;64108.03;5015315;28;45301;-47
2022/06/22 04:38:02;;;;;;;;;15.40;15.40;;;;;-149.35;100.00;64108.03;5017271;28;45406;-50
2022/06/22 04:40:46;;;;;;;;;12.80;12.80;;;;;-149.35;100.00;64108.03;5017289;28;46674;-45
2022/06/22 04:43:11;;;;;;;;;19.20;16.40;;;;;-149.35;100.00;64108.03;5017183;28;45821;-47
2022/06/22 04:45:39;;;;;;;;;14.50;14.50;;;;;-149.35;100.00;64108.03;5017303;28;45319;-46
2022/06/22 04:48:46;;;;;;;;;14.80;14.80;;;;;-149.35;100.00;64108.03;5017296;28;45387;-47
2022/06/22 04:51:15;;;;;;;;;14.20;13.60;;;;;-149.35;100.00;64108.03;4955959;28;46846;-51
2022/06/22 04:53:52;;;;;;;;;14.80;14.20;;;;;-149.35;100.00;64108.03;5021342;28;45497;-47
2022/06/22 04:56:22;;;;;;;;;17.40;16.00;;;;;-149.35;100.00;64108.03;5001002;28;45389;-51
2022/06/22 04:58:52;;;;;;;;;16.60;15.20;;;;;-149.35;100.00;64108.03;5017279;28;45430;-50
2022/06/22 05:01:28;;;;;;;;;16.60;16.60;;;;;-149.35;100.00;64108.03;5000039;28;45452;-46
2022/06/22 05:03:59;;;;;;;;;16.00;15.00;;;;;-149.35;100.00;64108.03;5016357;28;45381;-49
2022/06/22 05:06:32;;;;;;;;;18.80;17.40;;;;;-149.35;100.00;64108.03;5016640;28;45389;-44
2022/06/22 05:09:00;;;;;;;;;16.20;16.00;;;;;-149.35;100.00;64108.03;5016801;28;45599;-48
2022/06/22 05:11:47;;;;;;;;;15.80;15.60;;;;;-149.35;100.00;64108.03;5016711;28;45722;-44
2022/06/22 05:14:20;;;;;;;;;16.00;15.00;;;;;-149.35;100.00;64108.03;5015910;28;45459;-45
2022/06/22 05:16:53;;;;;;;;;14.00;14.00;;;;;-149.35;100.00;64108.03;5016999;28;45470;-50
2022/06/22 05:19:19;;;;;;;;;18.20;16.80;;;;;-149.35;100.00;64108.03;5016587;28;45446;-46
2022/06/22 05:21:45;;;;;;;;;16.50;16.50;;;;;-149.35;100.00;64108.03;5015858;28;46212;-45
2022/06/22 05:24:29;;;;;;;;;16.60;16.60;;;;;-149.35;100.00;64108.03;5017094;28;45358;-45
2022/06/22 05:26:56;;;;;;;;;18.60;17.60;;;;;-149.35;100.00;64108.03;5017789;28;45826;-47
2022/06/22 05:29:22;;;;;;;;;12.20;12.20;;;;;-149.35;100.00;64108.03;5017378;28;45342;-50
2022/06/22 05:31:56;;;;;;;;;18.60;18.60;;;;;-149.35;100.00;64108.03;4983587;28;46355;-49
2022/06/22 05:34:33;;;;;;;;;17.00;15.00;;;;;-149.35;100.00;64108.03;5015696;28;45421;-47
2022/06/22 05:37:08;;;;;;;;;15.00;14.60;;;;;-149.35;100.00;64108.03;5000020;28;45359;-46
2022/06/22 05:39:34;;;;;;;;;13.60;13.40;;;;;-149.35;100.00;64108.03;5016351;28;45375;-47
2022/06/22 05:42:00;;;;;;;;;20.00;18.50;;;;;-149.35;100.00;64108.03;5015590;28;46069;-49
2022/06/22 05:44:25;;;;;;;;;19.50;18.00;;;;;-149.35;100.00;64108.03;5015712;28;45325;-47
2022/06/22 05:46:53;;;;;;;;;23.25;17.75;;;;;-149.35;100.00;64108.03;4983256;28;45356;-46
2022/06/22 05:49:20;;;;;;;;;17.20;17.20;;;;;-149.35;100.00;64108.03;5016891;28;45468;-47
2022/06/22 05:51:49;;;;;;;;;16.80;16.00;;;;;-149.35;100.00;64108.03;5015764;28;45781;-48
2022/06/22 05:54:23;;;;;;;;;17.80;15.40;;;;;-149.35;100.00;64108.03;5016827;28;45491;-47
2022/06/22 05:57:12;;;;;;;;;20.80;17.60;;;;;-149.35;100.00;64108.03;5000086;28;45405;-48
2022/06/22 05:59:47;;;;;;;;;15.80;15.80;;;;;-149.35;100.00;64108.03;5005395;28;45655;-48
2022/06/22 06:02:23;;;;;;;;;15.60;14.40;;;;;-149.35;100.00;64108.03;5015602;28;45903;-46
2022/06/22 06:05:08;;;;;;;;;18.00;18.00;;;;;-149.35;100.00;64108.03;5016712;28;45372;-51
2022/06/22 06:07:48;;;;;;;;;15.00;15.00;;;;;-149.35;100.00;64108.03;5001548;28;45319;-48
2022/06/22 06:10:17;;;;;;;;;18.80;18.60;;;;;-149.35;100.00;64108.03;5015900;28;45444;-47
2022/06/22 06:12:45;;;;;;;;;21.00;19.60;;;;;-149.35;100.00;64108.03;5016566;28;45700;-46
2022/06/22 06:15:11;;;;;;;;;20.40;17.20;;;;;-149.35;100.00;64108.03;5015276;28;45517;-47
2022/06/22 06:17:45;;;;;;;;;20.60;19.20;;;;;-149.35;100.00;64108.03;5015314;28;45444;-46
2022/06/22 06:20:38;;;;;;;;;19.80;16.80;;;;;-149.35;100.00;64108.03;4999137;28;45374;-50
2022/06/22 06:23:22;;;;;;;;;20.20;16.20;;;;;-149.35;100.00;64108.03;5016360;28;46998;-47
2022/06/22 06:28:35;;;;;;;;;13.20;11.40;;;;;-149.35;100.00;64108.03;5015553;28;45427;-47
2022/06/22 06:31:06;;;;;;;;;17.80;17.00;;;;;-149.35;100.00;64108.03;5015848;28;45616;-49
2022/06/22 06:33:34;;;;;;;;;22.00;20.60;;;;;-149.35;100.00;64108.03;5014980;28;46612;-52
2022/06/22 06:36:09;;;;;;;;;21.00;19.40;;;;;-149.35;100.00;64108.03;5016684;28;45385;-48
2022/06/22 06:38:37;;;;;;;;;18.00;17.40;;;;;-149.35;100.00;64108.03;5015449;28;45408;-51
2022/06/22 06:41:13;;;;;;;;;20.00;18.60;;;;;-149.35;100.00;64108.03;5015616;28;45344;-50
2022/06/22 06:43:56;;;;;;;;;18.40;18.20;;;;;-149.35;100.00;64108.03;5015043;28;46551;-49
2022/06/22 06:46:31;;;;;;;;;16.80;15.60;;;;;-149.35;100.00;64108.03;5015095;28;45432;-47
2022/06/22 06:49:17;;;;;;;;;20.00;18.20;;;;;-149.35;100.00;64108.03;5015453;28;45342;-49
2022/06/22 06:52:04;;;;;;;;;21.60;17.40;;;;;-149.35;100.00;64108.03;4999183;28;45424;-47
2022/06/22 06:54:55;;;;;;;;;18.00;16.80;;;;;-149.35;100.00;64108.03;5014645;28;45715;-48
2022/06/22 06:57:22;;;;;;;;;19.80;18.80;;;;;-149.35;100.00;64108.03;5015432;28;45435;-49
2022/06/22 06:59:53;;;;;;;;;18.00;16.40;;;;;-149.35;100.00;64108.03;5014992;28;45291;-52
2022/06/22 07:02:31;;;;;;;;;23.00;21.00;;;;;-149.35;100.00;64108.03;5016292;28;45491;-46
2022/06/22 07:04:57;;;;;;;;;23.20;22.00;;;;;-149.35;100.00;64108.03;5014721;28;46542;-47
2022/06/22 07:07:40;;;;;;;;;25.00;20.00;;;;;-149.35;100.00;64108.03;5014999;28;45357;-49
2022/06/22 07:10:28;;;;;;;;;28.20;25.00;;;;;-149.35;100.00;64108.03;5016027;28;45372;-49
2022/06/22 07:12:56;;;;;;;;;25.20;21.40;;;;;-149.35;100.00;64108.03;5014393;28;45309;-48
2022/06/22 07:15:23;;;;;;;;;23.40;18.40;;;;;-149.35;100.00;64108.03;5014359;28;45991;-45
2022/06/22 07:17:50;;;;;;;;;18.20;18.00;;;;;-149.35;100.00;64108.03;4997752;28;45568;-48
2022/06/22 07:20:22;;;;;;;;;18.00;18.00;;;;;-149.35;100.00;64108.03;4998376;28;45347;-48
2022/06/22 07:22:53;;;;;;;;;23.00;18.20;;;;;-149.35;100.00;64108.03;4996161;28;45602;-48
2022/06/22 07:25:25;;;;;;;;;20.80;19.20;;;;;-149.35;100.00;64108.03;5015564;28;46636;-47
2022/06/22 07:28:03;;;;;;;;;20.80;19.00;;;;;-149.35;100.00;64108.03;5014354;28;45404;-46
2022/06/22 07:30:37;;;;;;;;;23.00;21.00;;;;;-149.35;100.00;64108.03;5015384;28;45283;-52
2022/06/22 07:33:48;;;;;;;;;18.60;17.80;;;;;-149.35;100.00;64108.03;4998399;28;45490;-48
2022/06/22 07:36:19;;;;;;;;;17.80;16.00;;;;;-149.35;100.00;64108.03;4953721;28;47101;-47
2022/06/22 07:38:52;;;;;;;;;21.60;21.60;;;;;-149.35;100.00;64108.03;4938173;28;45493;-49
2022/06/22 07:41:19;;;;;;;;;19.20;17.40;;;;;-149.35;100.00;64108.03;4982081;28;45416;-48
2022/06/22 07:43:47;;;;;;;;;22.20;20.40;;;;;-149.35;100.00;64108.03;5014685;28;45260;-49
2022/06/22 07:46:36;;;;;;;;;20.80;19.80;;;;;-149.35;100.00;64108.03;5013724;28;46180;-47
2022/06/22 07:49:14;;;;;;;;;20.60;20.20;;;;;-149.35;100.00;64108.03;5013290;28;45464;-46
2022/06/22 07:51:44;;;;;;;;;20.00;20.00;;;;;-149.35;100.00;64108.03;5000041;28;45309;-52
2022/06/22 07:54:21;;;;;;;;;24.00;20.60;;;;;-149.35;100.00;64108.03;5017108;28;45492;-48
2022/06/22 07:57:08;;;;;;;;;19.60;17.00;;;;;-149.35;100.00;64108.03;5014017;28;46472;-47
2022/06/22 07:59:40;;;;;;;;;24.60;19.20;;;;;-149.35;100.00;64108.03;5014130;28;45376;-45
2022/06/22 08:02:30;;;;;;;;;18.00;18.00;;;;;-149.35;100.00;64108.03;4979820;28;45480;-46
2022/06/22 08:05:02;;;;;;;;;23.40;20.60;;;;;-149.35;100.00;64108.03;5021465;28;45344;-48
2022/06/22 08:07:51;;;;;;;;;17.40;15.80;;;;;-149.35;100.00;64108.03;5035065;28;45452;-47
2022/06/22 08:10:33;;;;;;;;;22.20;21.00;;;;;-149.35;100.00;64108.03;5034896;28;45354;-49
2022/06/22 08:13:01;;;;;;;;;20.80;19.00;;;;;-149.35;100.00;64108.03;5035644;28;45333;-49
2022/06/22 08:15:26;;;;;;;;;18.60;18.60;;;;;-149.35;100.00;64108.03;5025350;28;46033;-46
2022/06/22 08:17:53;;;;;;;;;18.50;17.75;;;;;-149.35;100.00;64108.03;5000479;28;45520;-47
2022/06/22 08:20:21;;;;;;;;;23.00;19.40;;;;;-149.35;100.00;64108.03;5000408;28;45374;-48
2022/06/22 08:22:46;;;;;;;;;21.20;18.40;;;;;-149.35;100.00;64108.03;5000725;28;45536;-45
2022/06/22 08:25:13;;;;;;;;;21.50;18.75;;;;;-149.35;100.00;64108.03;5017320;28;45454;-47
2022/06/22 08:27:39;;;;;;;;;26.00;20.60;;;;;-149.35;100.00;64108.03;4999117;28;46720;-47
2022/06/22 08:30:05;;;;;;;;;20.00;19.80;;;;;-149.35;100.00;64108.03;5017146;28;45375;-46
2022/06/22 08:32:49;;;;;;;;;17.00;15.40;;;;;-149.35;100.00;64108.03;5018209;28;45370;-52
2022/06/22 08:35:23;;;;;;;;;20.20;17.00;;;;;-149.35;100.00;64108.03;5018733;28;45478;-50
2022/06/22 08:38:07;;;;;;;;;17.00;17.00;;;;;-149.35;100.00;64108.03;5018532;28;46708;-47
2022/06/22 08:40:51;;;;;;;;;16.40;15.80;;;;;-149.35;100.00;64108.03;5015460;28;45489;-46
2022/06/22 08:43:41;;;;;;;;;16.80;16.80;;;;;-149.35;100.00;64108.03;5018196;28;45453;-46
2022/06/22 08:46:13;;;;;;;;;17.00;16.20;;;;;-149.35;100.00;64108.03;5018411;28;45458;-50
2022/06/22 08:48:38;;;;;;;;;20.40;16.60;;;;;-149.35;100.00;64108.03;5033075;28;45567;-47
2022/06/22 08:51:10;;;;;;;;;17.50;17.50;;;;;-149.35;100.00;64108.03;5016749;28;45397;-47
2022/06/22 08:53:52;;;;;;;;;22.00;20.60;;;;;-149.35;100.00;64108.03;5021522;28;45338;-47
2022/06/22 08:56:52;;;;;;;;;25.20;18.20;;;;;-149.35;100.00;64108.03;5036993;28;45351;-47
2022/06/22 08:59:48;;;;;;;;;23.60;19.60;;;;;-149.35;100.00;64108.03;5037847;28;47018;-45
2022/06/22 09:02:22;;;;;;;;;25.20;23.00;;;;;-149.35;100.00;64108.03;5031660;28;45381;-47
2022/06/22 09:05:20;;;;;;;;;21.60;21.60;;;;;-149.35;100.00;64108.03;5016586;28;45428;-47
2022/06/22 09:08:01;;;;;;;;;17.40;16.60;;;;;-149.35;100.00;64108.03;4993822;28;45870;-46
2022/06/22 09:10:48;;;;;;;;;22.20;18.80;;;;;-149.35;100.00;64108.03;4997919;28;45746;-47
2022/06/22 09:13:55;;;;;;;;;18.20;16.40;;;;;-149.35;100.00;64108.03;4996667;28;45415;-47
2022/06/22 09:16:36;;;;;;;;;21.40;19.40;;;;;-149.35;100.00;64108.03;5015412;28;45439;-47
2022/06/22 09:19:18;;;;;;;;;23.00;18.80;;;;;-149.35;100.00;64108.03;5018065;28;45341;-47
2022/06/22 09:22:04;;;;;;;;;20.80;19.60;;;;;-149.35;100.00;64108.03;4983897;28;47065;-50
2022/06/22 09:24:41;;;;;;;;;18.80;17.60;;;;;-149.35;100.00;64108.03;4999261;28;45421;-48
2022/06/22 09:27:13;;;;;;;;;20.20;19.00;;;;;-149.35;100.00;64108.03;5016277;28;45477;-54
2022/06/22 09:29:49;;;;;;;;;22.20;18.40;;;;;-149.35;100.00;64108.03;5016137;28;45616;-48
2022/06/22 09:32:29;;;;;;;;;21.20;17.80;;;;;-149.35;100.00;64108.03;5010812;28;45563;-51
2022/06/22 09:35:22;;;;;;;;;20.20;17.80;;;;;-149.35;100.00;64108.03;5013874;28;45666;-50
2022/06/22 09:38:00;;;;;;;;;20.60;19.40;;;;;-149.35;100.00;64108.03;5016476;28;45451;-47
2022/06/22 09:40:45;;;;;;;;;19.40;19.40;;;;;-149.35;100.00;64108.03;5016209;28;45706;-50
2022/06/22 09:43:32;;;;;;;;;16.00;16.00;;;;;-149.35;100.00;64108.03;5014494;28;47172;-46
2022/06/22 09:46:22;;;;;;;;;16.60;16.60;;;;;-149.35;100.00;64108.03;5016795;28;45404;-48
2022/06/22 09:49:23;;;;;;;;;21.60;19.00;;;;;-149.35;100.00;64108.03;5016941;28;45436;-49
2022/06/22 09:52:12;;;;;;;;;19.40;18.40;;;;;-149.35;100.00;64108.03;5016014;28;45381;-48
2022/06/22 09:57:57;;;;;;;;;21.20;19.20;;;;;-149.35;100.00;64108.03;5017167;28;45214;-51
2022/06/22 10:00:44;;;;;;;;;19.60;18.20;;;;;-149.35;100.00;64108.03;5017132;28;45357;-51
2022/06/22 10:03:28;;;;;;;;;22.00;20.80;;;;;-149.35;100.00;64108.03;4954161;28;46385;-51
2022/06/22 10:06:11;;;;;;;;;18.60;18.60;;;;;-149.35;100.00;64108.03;4995524;28;46719;-53
2022/06/22 10:08:49;;;;;;;;;17.00;17.00;;;;;-149.35;100.00;64108.03;5012618;28;45982;-51
2022/06/22 10:11:27;;;;;;;;;18.00;16.60;;;;;-149.35;100.00;64108.03;5009890;28;45611;-49
2022/06/22 10:14:11;;;;;;;;;14.40;12.20;;;;;-149.35;100.00;64108.03;5012532;28;45548;-51
2022/06/22 10:16:55;;;;;;;;;18.00;17.20;;;;;-149.35;100.00;64108.03;5011239;28;45946;-49
2022/06/22 10:19:29;;;;;;;;;22.60;19.80;;;;;-149.35;100.00;64108.03;4993587;28;45572;-49
2022/06/22 10:22:37;;;;;;;;;22.60;17.80;;;;;-149.35;100.00;64108.03;5010183;28;45712;-54
2022/06/22 10:25:21;;;;;;;;;19.80;19.80;;;;;-149.35;100.00;64108.03;5007768;28;45518;-53
2022/06/22 10:28:19;;;;;;;;;21.00;18.80;;;;;-149.35;100.00;64108.03;5012080;28;47135;-53
2022/06/22 10:31:40;;;;;;;;;21.80;20.00;;;;;-149.35;100.00;64108.03;5005476;28;45886;-52
2022/06/22 10:34:13;;;;;;;;;20.80;19.80;;;;;-149.35;100.00;64108.03;4987384;28;45516;-50
2022/06/22 10:36:46;;;;;;;;;19.60;18.40;;;;;-149.35;100.00;64108.03;5002762;28;45640;-52
2022/06/22 10:39:33;;;;;;;;;18.40;17.80;;;;;-149.35;100.00;64108.03;5009960;28;47433;-49
2022/06/22 10:45:13;;;;;;;;;21.60;17.20;;;;;-149.35;100.00;64108.03;5011988;28;45749;-51
2022/06/22 10:48:09;;;;;;;;;19.00;19.00;;;;;-149.35;100.00;64108.03;5009691;28;45846;-48
2022/06/22 10:51:13;;;;;;;;;17.60;16.20;;;;;-149.35;100.00;64108.03;4993463;28;46663;-51
2022/06/22 10:54:00;;;;;;;;;13.80;13.80;;;;;-149.35;100.00;64108.03;5004778;28;45712;-51
2022/06/22 10:56:45;;;;;;;;;18.20;15.60;;;;;-149.35;100.00;64108.03;5008918;28;45867;-50
2022/06/22 10:59:27;;;;;;;;;14.40;14.40;;;;;-149.35;100.00;64108.03;4992154;28;45453;-52
2022/06/22 11:02:02;;;;;;;;;19.00;17.80;;;;;-149.35;100.00;64108.03;5009633;28;45533;-50
2022/06/22 11:04:42;;;;;;;;;17.00;14.00;;;;;-149.35;100.00;64108.03;5004949;28;45754;-55
2022/06/22 11:07:38;;;;;;;;;18.80;18.60;;;;;-149.35;100.00;64108.03;5011676;28;45440;-52
2022/06/22 11:10:39;;;;;;;;;13.00;11.80;;;;;-149.35;100.00;64108.03;5012080;28;45464;-51
2022/06/22 11:13:36;;;;;;;;;15.00;13.00;;;;;-149.35;100.00;64108.03;4976931;28;45990;-52
2022/06/22 11:16:05;;;;;;;;;13.20;13.20;;;;;-149.35;100.00;64108.03;5010281;28;45409;-51
2022/06/22 11:18:43;;;;;;;;;14.40;14.40;;;;;-149.35;100.00;64108.03;5010317;28;45534;-53
2022/06/22 11:21:27;;;;;;;;;11.80;11.00;;;;;-149.35;100.00;64108.03;4994805;28;45695;-50
2022/06/22 11:24:24;;;;;;;;;13.20;13.20;;;;;-149.35;100.00;64108.03;5010369;28;46136;-54
2022/06/22 11:33:40;;;;;;;;;10.60;10.60;;;;;-149.35;100.00;64108.03;5010641;28;45473;-48
2022/06/22 11:36:12;;;;;;;;;13.80;12.40;;;;;-149.35;100.00;64108.03;5008855;28;47093;-54
2022/06/22 11:39:02;;;;;;;;;12.40;11.40;;;;;-149.35;100.00;64108.03;5011114;28;45906;-50
2022/06/22 11:41:40;;;;;;;;;13.60;12.40;;;;;-149.35;100.00;64108.03;5011326;28;45459;-49
2022/06/22 11:44:39;;;;;;;;;10.40;10.40;;;;;-149.35;100.00;64108.03;4985267;28;45421;-52
2022/06/22 11:47:33;;;;;;;;;13.20;12.00;;;;;-149.35;100.00;64108.03;4995026;28;46540;-55
2022/06/22 11:50:19;;;;;;;;;14.20;13.60;;;;;-149.35;100.00;64108.03;5010918;28;45881;-49
2022/06/22 11:52:59;;;;;;;;;11.40;11.20;;;;;-149.35;100.00;64108.03;5013074;28;45497;-53
2022/06/22 11:55:40;;;;;;;;;10.40;10.40;;;;;-149.35;100.00;64108.03;5013904;28;45831;-55
2022/06/22 11:58:32;;;;;;;;;12.20;12.20;;;;;-149.35;100.00;64108.03;4995887;28;46608;-50